Terminal Aerodrome Forecast
Issued by NWS Sioux Falls, SD

Home | Current Version | Previous Version | Text Only | Print | Product List | Glossary On
Versions: 1 2 3 4 5 6 7 8 9 10 11 12 13 14 15 16 17 18 19
000
FTUS43 KFSD 011602 AAA
TAFHON
TAF AMD
KHON 011602Z 0116/0212 34018G25KT 1 1/2SM -SN BKN015
     FM011900 34015G22KT P6SM SCT040 BKN080
     FM012200 35012KT P6SM SKC
     FM020300 VRB03KT P6SM SKC=

USA.gov is the U.S. government's official web portal to all federal, state and local government web resources and services.